Time;durP1;ratioP1;P1;durP2;ratioP2;P2;SDS_P1;SDS_P2;PMS_P1;PMS_P2;Temp;Humidity;BMP_temperature;BMP_pressure;BME280_temperature;BME280_humidity;BME280_pressure;Samples;Min_cycle;Max_cycle;Signal;HPM_P1;HPM_P2
2023/03/29 00:00:13;;;;;;;8.07;3.75;;;5.20;99.90;;;;;;5062764;28;20036;-66
2023/03/29 00:02:47;;;;;;;5.65;3.60;;;5.10;99.90;;;;;;5061506;28;20754;-66
2023/03/29 00:05:13;;;;;;;5.20;3.60;;;5.20;99.90;;;;;;5063241;28;20394;-66
2023/03/29 00:07:40;;;;;;;4.72;3.42;;;5.10;99.90;;;;;;5063490;28;20052;-66
2023/03/29 00:10:07;;;;;;;5.93;3.60;;;5.10;99.90;;;;;;5055955;28;20545;-66
2023/03/29 00:12:32;;;;;;;5.10;3.47;;;5.10;99.90;;;;;;5062610;28;20043;-66
2023/03/29 00:14:58;;;;;;;6.85;3.63;;;5.10;99.90;;;;;;5046020;28;20488;-66
2023/03/29 00:17:24;;;;;;;5.85;3.25;;;5.10;99.90;;;;;;5056780;28;20137;-66
2023/03/29 00:19:50;;;;;;;5.32;3.35;;;5.10;99.90;;;;;;5061743;28;20052;-66
2023/03/29 00:22:16;;;;;;;7.55;3.45;;;5.10;99.90;;;;;;5062682;28;20342;-66
2023/03/29 00:24:41;;;;;;;6.28;3.90;;;5.10;99.90;;;;;;5074956;28;20166;-66
2023/03/29 00:27:07;;;;;;;6.90;3.22;;;5.10;99.90;;;;;;5064891;28;20083;-66
2023/03/29 00:29:33;;;;;;;5.05;3.67;;;5.10;99.90;;;;;;5060685;28;20037;-66
2023/03/29 00:31:59;;;;;;;5.90;3.42;;;5.10;99.90;;;;;;5061476;28;20044;-66
2023/03/29 00:34:29;;;;;;;5.45;3.53;;;5.10;99.90;;;;;;5062941;28;20046;-66
2023/03/29 00:36:56;;;;;;;5.78;3.67;;;5.00;99.90;;;;;;5066554;28;20405;-66
2023/03/29 00:39:24;;;;;;;5.38;3.35;;;5.00;99.90;;;;;;5067145;28;20130;-66
2023/03/29 00:41:50;;;;;;;7.82;3.70;;;5.00;99.90;;;;;;5066291;28;20046;-66
2023/03/29 00:44:53;;;;;;;5.22;3.38;;;5.00;99.90;;;;;;5065580;28;20035;-66
2023/03/29 00:47:21;;;;;;;;;;;5.00;99.90;;;;;;5066821;28;20067;-66
2023/03/29 00:49:51;;;;;;;6.78;3.60;;;5.00;99.90;;;;;;5066516;28;19979;-66
2023/03/29 00:52:20;;;;;;;7.35;3.95;;;4.90;99.90;;;;;;5065458;28;20025;-66
2023/03/29 00:54:51;;;;;;;8.25;3.90;;;4.90;99.90;;;;;;5067021;28;20064;-66
2023/03/29 00:57:18;;;;;;;5.40;3.50;;;4.90;99.90;;;;;;5065692;28;20058;-66
2023/03/29 00:59:46;;;;;;;5.85;3.28;;;4.90;99.90;;;;;;5064208;28;20045;-66
2023/03/29 01:02:13;;;;;;;5.53;3.95;;;4.90;99.90;;;;;;5063427;28;20054;-66
2023/03/29 01:04:42;;;;;;;7.18;3.45;;;4.90;99.90;;;;;;5060118;28;20048;-66
2023/03/29 01:07:24;;;;;;;8.35;3.97;;;4.90;99.90;;;;;;5067300;28;20044;-66
2023/03/29 01:10:10;;;;;;;;;;;5.00;99.90;;;;;;5064784;28;20063;-66
2023/03/29 01:12:42;;;;;;;6.07;4.00;;;4.90;99.90;;;;;;5066500;28;20480;-66
2023/03/29 01:15:11;;;;;;;5.22;3.97;;;5.00;99.90;;;;;;5063351;28;21044;-66
2023/03/29 01:17:39;;;;;;;8.73;3.72;;;5.00;99.90;;;;;;5067304;28;20089;-66
2023/03/29 01:20:34;;;;;;;8.10;3.92;;;4.90;99.90;;;;;;5048929;28;20080;-66
2023/03/29 01:23:06;;;;;;;6.43;4.00;;;4.90;99.90;;;;;;5065713;28;20064;-66
2023/03/29 01:25:31;;;;;;;9.38;4.25;;;4.90;99.90;;;;;;5063069;28;20110;-66
2023/03/29 01:28:07;;;;;;;8.65;4.18;;;4.90;99.90;;;;;;5067832;28;20490;-66
2023/03/29 01:30:42;;;;;;;8.13;4.10;;;4.90;99.90;;;;;;5064126;28;20029;-66
2023/03/29 01:33:13;;;;;;;8.38;3.55;;;4.90;99.90;;;;;;5063944;28;20049;-66
2023/03/29 01:35:58;;;;;;;5.97;4.00;;;4.90;99.90;;;;;;5046812;28;20060;-66
2023/03/29 01:38:36;;;;;;;7.28;4.43;;;4.90;99.90;;;;;;5064911;28;20132;-66
2023/03/29 01:41:02;;;;;;;7.10;4.35;;;4.90;99.90;;;;;;5066890;28;20958;-66
2023/03/29 01:43:49;;;;;;;6.55;4.20;;;4.90;99.90;;;;;;5048462;28;20493;-66
2023/03/29 01:46:30;;;;;;;7.13;4.53;;;4.90;99.90;;;;;;5065231;28;20032;-66
2023/03/29 01:49:13;;;;;;;9.27;4.65;;;4.90;99.90;;;;;;5045575;28;20079;-66
2023/03/29 01:51:43;;;;;;;13.52;5.28;;;4.90;99.90;;;;;;5065590;28;20041;-66
2023/03/29 01:54:17;;;;;;;8.55;5.53;;;4.90;99.90;;;;;;5060111;28;20033;-65
2023/03/29 01:56:47;;;;;;;7.40;5.10;;;4.80;99.90;;;;;;5064239;28;20035;-66
2023/03/29 01:59:19;;;;;;;9.20;5.43;;;4.80;99.90;;;;;;5065218;28;20123;-66
2023/03/29 02:01:49;;;;;;;11.18;5.65;;;4.80;99.90;;;;;;5064309;28;20071;-66
2023/03/29 02:04:25;;;;;;;11.00;6.22;;;4.80;99.90;;;;;;5064167;28;20121;-66
2023/03/29 02:06:53;;;;;;;11.63;6.57;;;4.80;99.90;;;;;;5056173;28;20036;-66
2023/03/29 02:09:20;;;;;;;12.45;6.97;;;4.80;99.90;;;;;;5065222;28;20040;-66
2023/03/29 02:11:48;;;;;;;11.20;6.90;;;4.80;99.90;;;;;;5065126;28;20115;-66
2023/03/29 02:14:14;;;;;;;13.65;7.47;;;4.80;99.90;;;;;;5065719;28;20036;-66
2023/03/29 02:16:40;;;;;;;14.90;7.70;;;4.80;99.90;;;;;;5063614;28;20492;-66
2023/03/29 02:19:06;;;;;;;11.20;7.32;;;4.80;99.90;;;;;;5064968;28;20048;-66
2023/03/29 02:22:09;;;;;;;12.80;8.57;;;4.80;99.90;;;;;;5064748;28;20693;-66
2023/03/29 02:24:37;;;;;;;12.07;7.53;;;4.80;99.90;;;;;;5022759;28;20506;-66
2023/03/29 02:27:04;;;;;;;16.08;8.10;;;4.80;99.90;;;;;;5056745;28;20071;-66
2023/03/29 02:29:30;;;;;;;15.80;8.88;;;4.90;99.90;;;;;;5042050;28;20060;-66
2023/03/29 02:32:04;;;;;;;14.10;8.70;;;4.80;99.90;;;;;;5077141;28;20137;-66
2023/03/29 02:34:37;;;;;;;18.88;9.15;;;4.90;99.90;;;;;;5047222;28;20046;-66
2023/03/29 02:37:14;;;;;;;14.25;8.82;;;4.80;99.90;;;;;;5061606;28;20131;-66
2023/03/29 02:39:41;;;;;;;14.50;8.60;;;4.80;99.90;;;;;;5061099;28;20136;-67
2023/03/29 02:42:08;;;;;;;16.77;9.57;;;4.80;99.90;;;;;;5065317;28;20041;-66
2023/03/29 02:44:38;;;;;;;17.40;10.20;;;4.80;99.90;;;;;;5045975;28;20509;-66
2023/03/29 02:47:15;;;;;;;13.25;8.52;;;4.80;99.90;;;;;;5063295;28;20045;-66
2023/03/29 02:49:42;;;;;;;15.68;8.57;;;4.80;99.90;;;;;;5065743;28;20033;-66
2023/03/29 02:52:13;;;;;;;14.20;8.38;;;4.80;99.90;;;;;;5065333;28;20138;-66
2023/03/29 02:54:42;;;;;;;17.05;8.85;;;4.80;99.90;;;;;;5063312;28;20516;-66
2023/03/29 02:57:09;;;;;;;17.25;9.15;;;4.80;99.90;;;;;;5065509;28;20039;-66
2023/03/29 02:59:35;;;;;;;15.43;10.30;;;4.80;99.90;;;;;;5063919;28;20040;-66
2023/03/29 03:02:02;;;;;;;16.55;9.30;;;4.80;99.90;;;;;;5058385;28;20052;-66
2023/03/29 03:04:28;;;;;;;15.80;9.35;;;4.80;99.90;;;;;;5064849;28;20040;-66
2023/03/29 03:06:54;;;;;;;18.35;9.88;;;4.90;99.90;;;;;;5063236;28;20131;-67
2023/03/29 03:09:20;;;;;;;15.05;8.55;;;4.90;99.90;;;;;;5064809;28;20038;-67
2023/03/29 03:11:45;;;;;;;14.18;9.35;;;4.90;99.90;;;;;;5062257;28;20363;-66
2023/03/29 03:14:11;;;;;;;18.48;9.23;;;4.90;99.90;;;;;;5062893;28;20036;-66
2023/03/29 03:16:37;;;;;;;14.88;9.13;;;4.90;99.90;;;;;;5063784;28;20429;-67
2023/03/29 03:19:04;;;;;;;13.75;9.05;;;4.90;99.90;;;;;;5062009;28;20041;-66
2023/03/29 03:21:30;;;;;;;14.38;8.82;;;4.90;99.90;;;;;;5065374;28;20048;-66
2023/03/29 03:23:56;;;;;;;16.77;9.25;;;4.90;99.90;;;;;;5063777;28;20093;-67
2023/03/29 03:26:23;;;;;;;20.45;9.27;;;4.90;99.90;;;;;;5064081;28;20040;-66
2023/03/29 03:28:50;;;;;;;14.88;8.90;;;4.90;99.90;;;;;;5062409;28;20118;-66
2023/03/29 03:31:16;;;;;;;15.65;8.85;;;4.90;99.90;;;;;;5060272;28;20059;-66
2023/03/29 03:33:42;;;;;;;15.80;9.38;;;5.00;99.90;;;;;;5063755;28;20048;-66
2023/03/29 03:36:09;;;;;;;16.15;9.52;;;4.90;99.90;;;;;;5061801;28;20052;-66
2023/03/29 03:38:37;;;;;;;14.80;10.00;;;5.00;99.90;;;;;;5062520;28;20056;-66
2023/03/29 03:41:04;;;;;;;13.20;8.98;;;5.00;99.90;;;;;;5063293;28;20063;-66
2023/03/29 03:43:30;;;;;;;18.42;9.23;;;5.00;99.90;;;;;;5063252;28;20040;-66
2023/03/29 03:45:55;;;;;;;16.23;9.88;;;5.10;99.90;;;;;;5028638;28;20517;-66
2023/03/29 03:48:22;;;;;;;17.75;9.70;;;5.00;99.90;;;;;;5052980;28;20037;-67
2023/03/29 03:50:53;;;;;;;14.82;8.93;;;5.00;99.90;;;;;;5060790;28;20028;-66
2023/03/29 03:53:20;;;;;;;14.57;8.90;;;5.00;99.90;;;;;;5042629;28;20127;-66
2023/03/29 03:55:53;;;;;;;15.52;9.43;;;5.00;99.90;;;;;;5062551;28;20444;-66
2023/03/29 03:58:19;;;;;;;16.55;9.30;;;5.00;99.90;;;;;;5062271;28;20116;-67
2023/03/29 04:00:49;;;;;;;16.85;9.82;;;5.00;99.90;;;;;;5063811;28;20048;-66
2023/03/29 04:03:15;;;;;;;15.23;9.95;;;5.00;99.90;;;;;;5061377;28;20622;-66
2023/03/29 04:05:43;;;;;;;16.98;9.63;;;5.00;99.90;;;;;;5062239;28;20115;-66
2023/03/29 04:08:12;;;;;;;17.33;10.15;;;5.00;99.90;;;;;;5063446;28;20409;-66
2023/03/29 04:10:38;;;;;;;16.00;9.18;;;5.00;99.90;;;;;;5065810;28;20051;-66
2023/03/29 04:13:04;;;;;;;16.40;10.15;;;5.00;99.90;;;;;;5066629;28;20029;-66
2023/03/29 04:15:32;;;;;;;17.38;10.82;;;5.00;99.90;;;;;;5068256;28;20037;-67
2023/03/29 04:17:59;;;;;;;18.95;9.98;;;5.00;99.90;;;;;;5064678;28;20051;-67
2023/03/29 04:20:26;;;;;;;13.00;9.07;;;5.00;99.90;;;;;;5065822;28;20051;-66
2023/03/29 04:22:52;;;;;;;18.20;9.75;;;5.10;99.90;;;;;;5056376;28;20123;-66
2023/03/29 04:25:18;;;;;;;13.18;9.50;;;5.10;99.90;;;;;;5065935;28;20557;-66
2023/03/29 04:27:45;;;;;;;16.98;9.70;;;5.10;99.90;;;;;;5065095;28;20091;-66
2023/03/29 04:30:12;;;;;;;19.77;9.18;;;5.10;99.90;;;;;;5031729;28;20489;-66
2023/03/29 04:32:38;;;;;;;15.88;10.10;;;5.10;99.90;;;;;;5068596;28;20028;-66
2023/03/29 04:35:04;;;;;;;16.42;9.68;;;5.10;99.90;;;;;;5070580;28;20504;-66
2023/03/29 04:37:31;;;;;;;17.67;10.10;;;5.10;99.90;;;;;;5068825;28;20105;-66
2023/03/29 04:39:59;;;;;;;18.08;9.68;;;5.10;99.90;;;;;;5059107;28;20106;-66
2023/03/29 04:42:26;;;;;;;14.88;9.23;;;5.10;99.90;;;;;;5069246;28;20090;-66
2023/03/29 04:44:52;;;;;;;15.07;9.88;;;5.10;99.90;;;;;;5063426;28;20037;-66
2023/03/29 04:47:18;;;;;;;16.98;9.90;;;5.10;99.90;;;;;;5072476;28;20124;-66
2023/03/29 04:49:45;;;;;;;14.23;10.00;;;5.00;99.90;;;;;;5071112;28;20037;-66
2023/03/29 04:52:11;;;;;;;14.30;10.30;;;5.00;99.90;;;;;;5068322;28;20045;-66
2023/03/29 04:54:37;;;;;;;17.40;9.77;;;5.10;99.90;;;;;;5050215;28;20115;-66
2023/03/29 04:57:04;;;;;;;15.25;9.77;;;5.10;99.90;;;;;;5063097;28;20135;-66
2023/03/29 04:59:31;;;;;;;14.52;9.05;;;5.10;99.90;;;;;;5064477;28;20124;-66
2023/03/29 05:01:57;;;;;;;17.45;10.27;;;5.10;99.90;;;;;;5065483;28;20115;-66
2023/03/29 05:04:23;;;;;;;17.15;10.15;;;5.20;99.90;;;;;;5064514;28;20504;-66
2023/03/29 05:06:50;;;;;;;14.05;9.38;;;5.20;99.90;;;;;;5048559;28;20040;-66
2023/03/29 05:09:16;;;;;;;16.10;9.45;;;5.20;99.90;;;;;;5047367;28;20379;-66
2023/03/29 05:11:42;;;;;;;13.77;9.48;;;5.20;99.90;;;;;;5064495;28;20044;-66
2023/03/29 05:14:10;;;;;;;15.57;9.60;;;5.20;99.90;;;;;;5062504;28;20039;-66
2023/03/29 05:16:36;;;;;;;16.50;9.52;;;5.20;99.90;;;;;;5064960;28;20501;-66
2023/03/29 05:19:02;;;;;;;15.13;9.15;;;5.20;99.90;;;;;;5065638;28;20037;-66
2023/03/29 05:21:32;;;;;;;17.48;10.38;;;5.20;99.90;;;;;;5057654;28;20386;-66
2023/03/29 05:24:00;;;;;;;14.48;9.43;;;5.20;99.90;;;;;;5065463;28;20489;-66
2023/03/29 05:26:26;;;;;;;19.38;10.00;;;5.20;99.90;;;;;;5064428;28;20040;-66
2023/03/29 05:28:52;;;;;;;17.27;10.68;;;5.20;99.90;;;;;;5045901;28;20052;-67
2023/03/29 05:31:18;;;;;;;19.02;10.82;;;5.20;99.90;;;;;;5070618;28;20112;-66
2023/03/29 05:33:46;;;;;;;19.42;11.60;;;5.20;99.90;;;;;;5062242;28;20143;-67
2023/03/29 05:36:14;;;;;;;15.00;10.50;;;5.10;99.90;;;;;;5066237;28;20091;-67
2023/03/29 05:38:45;;;;;;;19.65;12.02;;;5.20;99.90;;;;;;5065646;28;20045;-66
2023/03/29 05:41:12;;;;;;;21.13;12.27;;;5.10;99.90;;;;;;5065465;28;20286;-66
2023/03/29 05:43:38;;;;;;;20.38;11.90;;;5.00;99.90;;;;;;5062072;28;20041;-67
2023/03/29 05:46:05;;;;;;;20.00;11.63;;;5.10;99.90;;;;;;5064140;28;20111;-67
2023/03/29 05:48:31;;;;;;;18.77;11.27;;;5.00;99.90;;;;;;5063699;28;20048;-66
2023/03/29 05:50:57;;;;;;;22.05;13.20;;;5.00;99.90;;;;;;5061978;28;20140;-66
2023/03/29 05:53:24;;;;;;;20.33;12.27;;;5.00;99.90;;;;;;5063660;28;20421;-66
2023/03/29 05:55:50;;;;;;;23.67;13.35;;;5.00;99.90;;;;;;5062247;28;20044;-66
2023/03/29 05:58:17;;;;;;;20.25;13.10;;;5.00;99.90;;;;;;5079432;28;20052;-66
2023/03/29 06:00:43;;;;;;;24.73;13.88;;;5.00;99.90;;;;;;5064372;28;20437;-66
2023/03/29 06:03:17;;;;;;;26.15;14.70;;;4.90;99.90;;;;;;5048097;28;20036;-67
2023/03/29 06:05:45;;;;;;;24.05;13.05;;;4.90;99.90;;;;;;5069169;28;20371;-66
2023/03/29 06:08:17;;;;;;;24.80;13.23;;;4.90;99.90;;;;;;5063337;28;20058;-66
2023/03/29 06:10:43;;;;;;;27.30;14.70;;;4.90;99.90;;;;;;5063313;28;20560;-66
2023/03/29 06:13:09;;;;;;;25.80;15.18;;;4.90;99.90;;;;;;5066841;28;20222;-66
2023/03/29 06:15:35;;;;;;;22.00;13.27;;;4.90;99.90;;;;;;5057137;28;20036;-66
2023/03/29 06:18:02;;;;;;;28.83;15.00;;;5.00;99.90;;;;;;5063710;28;20047;-67
2023/03/29 06:20:28;;;;;;;27.55;15.77;;;5.00;99.90;;;;;;5062847;28;20048;-66
2023/03/29 06:22:53;;;;;;;27.45;15.75;;;5.00;99.90;;;;;;5065422;28;20090;-66
2023/03/29 06:25:19;;;;;;;25.80;14.00;;;5.00;99.90;;;;;;5071336;28;20424;-66
2023/03/29 06:27:46;;;;;;;25.65;15.50;;;5.00;99.90;;;;;;5079966;28;20482;-67
2023/03/29 06:30:17;;;;;;;21.42;14.07;;;5.10;99.90;;;;;;5071056;28;20040;-66
2023/03/29 06:32:43;;;;;;;29.08;14.27;;;5.10;99.90;;;;;;5070761;28;20122;-66
2023/03/29 06:35:10;;;;;;;23.55;13.60;;;5.10;99.90;;;;;;5068848;28;20101;-67
2023/03/29 06:37:39;;;;;;;22.88;13.23;;;5.10;99.90;;;;;;5067986;28;20044;-66
2023/03/29 06:40:05;;;;;;;24.55;14.68;;;5.20;99.90;;;;;;5068176;28;20041;-67
2023/03/29 06:42:31;;;;;;;24.92;14.43;;;5.20;99.90;;;;;;5062134;28;20537;-66
2023/03/29 06:44:58;;;;;;;25.75;14.20;;;5.20;99.90;;;;;;5065068;28;20436;-66
2023/03/29 06:47:29;;;;;;;24.05;14.00;;;5.20;99.90;;;;;;5081130;28;20513;-66
2023/03/29 06:49:55;;;;;;;25.30;14.30;;;5.20;99.90;;;;;;5065243;28;20056;-66
2023/03/29 06:52:21;;;;;;;21.85;13.35;;;5.30;99.90;;;;;;5078989;28;20525;-66
2023/03/29 06:54:47;;;;;;;24.20;14.30;;;5.30;99.90;;;;;;5056652;28;20062;-66
2023/03/29 06:57:12;;;;;;;24.20;13.63;;;5.40;99.90;;;;;;5075470;28;20173;-67
2023/03/29 06:59:38;;;;;;;22.05;13.23;;;5.40;99.90;;;;;;5070981;28;20145;-66
2023/03/29 07:02:04;;;;;;;24.17;12.70;;;5.40;99.90;;;;;;5067097;28;20037;-67
2023/03/29 07:04:31;;;;;;;20.02;12.07;;;5.50;99.90;;;;;;5066013;28;20519;-67
2023/03/29 07:07:00;;;;;;;22.20;12.70;;;5.50;99.90;;;;;;5067972;28;20085;-67
2023/03/29 07:09:30;;;;;;;24.30;12.68;;;5.50;99.90;;;;;;5066388;28;20051;-66
2023/03/29 07:11:57;;;;;;;23.27;13.35;;;5.60;99.90;;;;;;5044698;28;20033;-66
2023/03/29 07:14:27;;;;;;;22.85;12.25;;;5.60;99.90;;;;;;5060649;28;20040;-66
2023/03/29 07:16:54;;;;;;;21.67;12.65;;;5.70;99.90;;;;;;5066765;28;20067;-67
2023/03/29 07:19:23;;;;;;;20.98;11.55;;;5.80;99.90;;;;;;5069105;28;20051;-67
2023/03/29 07:21:50;;;;;;;21.88;12.55;;;5.80;99.90;;;;;;5070341;28;20028;-66
2023/03/29 07:24:16;;;;;;;18.52;10.98;;;5.90;99.90;;;;;;5068057;28;20040;-66
2023/03/29 07:26:42;;;;;;;17.08;10.73;;;5.90;99.90;;;;;;5061995;28;20052;-66
2023/03/29 07:29:08;;;;;;;18.90;10.98;;;5.90;99.90;;;;;;5070288;28;20044;-66
2023/03/29 07:31:37;;;;;;;17.77;10.48;;;5.90;99.90;;;;;;5053848;28;20044;-66
2023/03/29 07:34:09;;;;;;;17.77;10.18;;;6.00;99.90;;;;;;5068221;28;20032;-66
2023/03/29 07:36:38;;;;;;;19.48;10.75;;;6.00;99.90;;;;;;5054587;28;20051;-67
2023/03/29 07:39:05;;;;;;;17.80;11.05;;;6.00;99.90;;;;;;5070444;28;20041;-67
2023/03/29 07:41:32;;;;;;;15.32;9.73;;;6.00;99.90;;;;;;5055816;28;20517;-67
2023/03/29 07:44:03;;;;;;;16.15;10.10;;;6.00;99.90;;;;;;5070025;28;20036;-67
2023/03/29 07:46:29;;;;;;;17.33;10.40;;;5.90;99.90;;;;;;5069856;28;20074;-66
2023/03/29 07:48:55;;;;;;;15.85;9.80;;;6.00;99.90;;;;;;5063326;28;20133;-66
2023/03/29 07:51:21;;;;;;;15.32;9.35;;;6.10;99.90;;;;;;5068995;28;20067;-66
2023/03/29 07:53:48;;;;;;;12.02;7.90;;;6.10;99.90;;;;;;5068155;28;20091;-67
2023/03/29 07:56:14;;;;;;;13.63;8.95;;;6.10;99.90;;;;;;5056642;28;20482;-66
2023/03/29 07:58:40;;;;;;;17.27;9.40;;;6.20;99.90;;;;;;5051924;28;20110;-67
2023/03/29 08:01:07;;;;;;;14.68;8.80;;;6.20;99.90;;;;;;5069661;28;20063;-67
2023/03/29 08:03:33;;;;;;;17.23;8.90;;;6.20;99.90;;;;;;5070061;28;20045;-66
2023/03/29 08:06:03;;;;;;;11.98;8.15;;;6.20;99.90;;;;;;5063658;28;20045;-66
2023/03/29 08:08:28;;;;;;;15.13;8.15;;;6.20;99.90;;;;;;5058188;28;20270;-66
2023/03/29 08:10:54;;;;;;;14.35;8.40;;;6.30;99.90;;;;;;5060768;28;20033;-66
2023/03/29 08:13:20;;;;;;;11.45;7.88;;;6.30;99.90;;;;;;5069703;28;20032;-67
2023/03/29 08:15:47;;;;;;;13.90;8.02;;;6.30;99.90;;;;;;5064388;28;20033;-66
2023/03/29 08:18:13;;;;;;;13.07;8.65;;;6.40;99.90;;;;;;5065966;28;20409;-66
2023/03/29 08:20:39;;;;;;;13.30;8.18;;;6.40;99.90;;;;;;5066658;28;20491;-66
2023/03/29 08:23:05;;;;;;;13.75;8.13;;;6.50;99.90;;;;;;5068440;28;20115;-67
2023/03/29 08:25:31;;;;;;;17.08;9.82;;;6.50;99.90;;;;;;5067912;28;20512;-66
2023/03/29 08:27:57;;;;;;;13.55;8.20;;;6.50;99.90;;;;;;5067658;28;20064;-66
2023/03/29 08:30:22;;;;;;;13.23;7.32;;;6.60;99.90;;;;;;5068412;28;20033;-66
2023/03/29 08:32:48;;;;;;;11.48;7.63;;;6.60;99.90;;;;;;5069484;28;20039;-67
2023/03/29 08:35:14;;;;;;;10.73;7.50;;;6.60;99.90;;;;;;5069326;28;20032;-66
2023/03/29 08:37:41;;;;;;;11.98;7.32;;;6.70;99.90;;;;;;5069314;28;20053;-67
2023/03/29 08:40:10;;;;;;;12.77;8.32;;;6.70;99.90;;;;;;5068435;28;20438;-66
2023/03/29 08:42:56;;;;;;;14.57;7.95;;;6.80;99.90;;;;;;5064386;28;20501;-67
2023/03/29 08:45:28;;;;;;;14.70;8.20;;;6.80;99.90;;;;;;5069412;28;20037;-66
2023/03/29 08:48:19;;;;;;;14.50;7.65;;;6.90;99.90;;;;;;5067018;28;20033;-66
2023/03/29 08:50:51;;;;;;;9.30;6.25;;;7.00;99.90;;;;;;5065070;28;20107;-66
2023/03/29 08:53:34;;;;;;;9.65;6.95;;;7.10;99.90;;;;;;5068924;28;20035;-66
2023/03/29 08:56:07;;;;;;;11.52;6.03;;;7.20;99.90;;;;;;5068443;28;20055;-67
2023/03/29 08:58:36;;;;;;;9.82;6.85;;;7.30;99.90;;;;;;5048972;28;20045;-66
2023/03/29 09:01:04;;;;;;;11.10;7.32;;;7.40;99.90;;;;;;5072659;28;20086;-66
2023/03/29 09:03:43;;;;;;;14.38;7.38;;;7.60;99.90;;;;;;5071996;28;20094;-66
2023/03/29 09:06:11;;;;;;;12.50;6.45;;;7.70;99.90;;;;;;5071593;28;20039;-66
2023/03/29 09:08:46;;;;;;;9.50;6.05;;;7.90;99.90;;;;;;5070989;28;20036;-67
2023/03/29 09:11:21;;;;;;;12.35;6.22;;;8.00;99.90;;;;;;5070671;28;20115;-66
2023/03/29 09:14:07;;;;;;;12.23;6.68;;;8.10;99.90;;;;;;5071963;28;20039;-67
2023/03/29 09:16:59;;;;;;;11.00;6.65;;;8.20;99.90;;;;;;5070449;28;20875;-67
2023/03/29 09:19:40;;;;;;;10.25;5.93;;;8.30;99.90;;;;;;5059316;28;20040;-67
2023/03/29 09:22:45;;;;;;;10.38;6.35;;;8.40;99.90;;;;;;5049013;28;20053;-66
2023/03/29 09:25:20;;;;;;;10.40;6.50;;;8.60;99.90;;;;;;5069651;28;20040;-67
2023/03/29 09:28:11;;;;;;;8.25;6.10;;;8.60;99.90;;;;;;5071799;28;20080;-67
2023/03/29 09:31:12;;;;;;;9.65;5.88;;;8.80;99.90;;;;;;5070079;28;20032;-67
2023/03/29 09:34:04;;;;;;;11.48;6.18;;;9.00;99.90;;;;;;5063126;28;20045;-66
2023/03/29 09:36:33;;;;;;;9.10;6.05;;;9.30;99.90;;;;;;5042086;28;20060;-67
2023/03/29 09:38:59;;;;;;;10.02;6.88;;;9.40;99.90;;;;;;5072309;28;20040;-67
2023/03/29 09:41:37;;;;;;;12.13;6.95;;;9.50;99.90;;;;;;5069920;28;20067;-66
2023/03/29 09:44:24;;;;;;;9.05;6.10;;;9.70;99.90;;;;;;5072059;28;20129;-67
2023/03/29 09:46:55;;;;;;;11.32;6.30;;;9.70;99.90;;;;;;5067371;28;20106;-67
2023/03/29 09:49:30;;;;;;;7.75;6.20;;;9.70;99.90;;;;;;5065859;28;20052;-67
2023/03/29 09:52:00;;;;;;;12.00;7.18;;;9.60;99.90;;;;;;5068599;28;20042;-67
2023/03/29 09:54:26;;;;;;;10.00;6.22;;;9.50;99.90;;;;;;5069546;28;20083;-67
2023/03/29 09:56:52;;;;;;;10.98;6.80;;;9.50;99.90;;;;;;5053133;28;20068;-66
2023/03/29 09:59:18;;;;;;;9.45;5.90;;;9.40;99.90;;;;;;5070248;28;20101;-67
2023/03/29 10:01:44;;;;;;;9.73;5.90;;;9.30;99.90;;;;;;5070984;28;20047;-67
2023/03/29 10:04:11;;;;;;;13.52;6.57;;;9.40;99.90;;;;;;5071955;28;20036;-67
2023/03/29 10:06:49;;;;;;;9.52;6.07;;;9.60;99.90;;;;;;5065642;28;20178;-66
2023/03/29 10:09:20;;;;;;;10.90;6.10;;;9.60;99.90;;;;;;5067300;28;20529;-66
2023/03/29 10:11:55;;;;;;;11.38;6.50;;;9.70;99.90;;;;;;5067097;28;20498;-67
2023/03/29 10:14:46;;;;;;;9.82;6.35;;;9.70;99.90;;;;;;5070169;28;20032;-66
2023/03/29 10:17:20;;;;;;;8.05;6.35;;;9.70;99.90;;;;;;5065132;28;20033;-67
2023/03/29 10:19:57;;;;;;;11.23;6.50;;;9.70;99.90;;;;;;5065856;28;20040;-67
2023/03/29 10:22:34;;;;;;;9.38;6.15;;;9.60;99.90;;;;;;5060731;28;20129;-67
2023/03/29 10:24:59;;;;;;;10.27;6.72;;;9.60;99.90;;;;;;5067586;28;20486;-66
2023/03/29 10:27:33;;;;;;;13.95;7.10;;;9.70;99.90;;;;;;5070812;28;20132;-66
2023/03/29 10:30:08;;;;;;;12.55;7.65;;;9.90;99.90;;;;;;5071116;28;20121;-66
2023/03/29 10:32:36;;;;;;;11.43;6.97;;;10.00;99.90;;;;;;5068967;28;20037;-66
2023/03/29 10:35:20;;;;;;;11.48;7.93;;;10.20;99.90;;;;;;5067895;28;20036;-67
2023/03/29 10:37:51;;;;;;;12.52;7.22;;;10.30;99.90;;;;;;5067950;28;20053;-67
2023/03/29 10:41:00;;;;;;;10.77;7.25;;;10.40;99.90;;;;;;5063174;28;20040;-67
2023/03/29 10:43:33;;;;;;;12.88;7.78;;;10.30;99.90;;;;;;5063398;28;20466;-66
2023/03/29 10:46:30;;;;;;;12.68;7.10;;;10.30;99.90;;;;;;5064758;28;20504;-67
2023/03/29 10:48:58;;;;;;;10.10;6.97;;;10.40;99.90;;;;;;5054399;28;20048;-66
2023/03/29 10:51:29;;;;;;;12.77;7.32;;;10.30;99.90;;;;;;5065489;28;20193;-66
2023/03/29 10:53:57;;;;;;;10.75;7.97;;;10.40;99.90;;;;;;5064573;28;20043;-67
2023/03/29 10:56:39;;;;;;;10.10;7.57;;;10.50;99.90;;;;;;5062060;28;20040;-66
2023/03/29 10:59:23;;;;;;;10.68;7.15;;;10.60;99.90;;;;;;5071997;28;20055;-67
2023/03/29 11:02:14;;;;;;;11.07;7.90;;;10.60;99.90;;;;;;5060483;28;20098;-67
2023/03/29 11:04:46;;;;;;;12.77;7.80;;;10.70;99.90;;;;;;5060080;28;20055;-67
2023/03/29 11:07:41;;;;;;;10.10;7.45;;;10.70;99.90;;;;;;5070317;28;20273;-67
2023/03/29 11:10:30;;;;;;;12.38;7.43;;;11.00;99.90;;;;;;5048436;28;20047;-67
2023/03/29 11:13:07;;;;;;;10.68;7.20;;;11.10;99.90;;;;;;5054923;28;20040;-66
2023/03/29 11:16:23;;;;;;;12.38;7.45;;;11.30;99.90;;;;;;5066503;28;20047;-67
2023/03/29 11:18:49;;;;;;;12.10;7.18;;;11.20;99.90;;;;;;5050631;28;20040;-67
2023/03/29 11:22:01;;;;;;;9.45;7.22;;;11.20;99.90;;;;;;5067524;28;20093;-67
2023/03/29 11:24:45;;;;;;;14.35;7.00;;;11.30;99.90;;;;;;5056795;28;20062;-67
2023/03/29 11:27:33;;;;;;;9.82;6.72;;;11.10;99.90;;;;;;5065509;28;20033;-67
2023/03/29 11:30:02;;;;;;;11.55;7.40;;;11.10;99.90;;;;;;5069641;28;20033;-67
2023/03/29 11:32:45;;;;;;;13.55;7.25;;;11.20;99.90;;;;;;5067982;28;20043;-67
2023/03/29 11:35:30;;;;;;;9.40;6.18;;;11.40;99.90;;;;;;5061172;28;20048;-67
2023/03/29 11:38:08;;;;;;;9.02;6.60;;;11.70;99.90;;;;;;5062659;28;20064;-67
2023/03/29 11:40:55;;;;;;;8.93;6.18;;;11.70;99.90;;;;;;5059241;28;20055;-67
2023/03/29 11:43:49;;;;;;;13.50;7.75;;;11.70;99.90;;;;;;5068656;28;20094;-67
2023/03/29 11:46:45;;;;;;;8.95;6.45;;;11.80;99.90;;;;;;5068784;28;20064;-66
2023/03/29 11:49:24;;;;;;;10.05;6.30;;;11.80;99.90;;;;;;5068003;28;20040;-67
2023/03/29 11:52:03;;;;;;;13.32;7.25;;;11.90;99.90;;;;;;5044039;28;20037;-67
2023/03/29 11:54:39;;;;;;;9.95;6.55;;;11.70;99.90;;;;;;5065784;28;20442;-67
2023/03/29 11:57:24;;;;;;;8.23;6.65;;;11.70;99.90;;;;;;5068556;28;20028;-67
2023/03/29 12:00:14;;;;;;;8.50;6.40;;;11.90;99.90;;;;;;5066692;28;20040;-67
2023/03/29 12:03:04;;;;;;;9.85;6.55;;;12.00;99.90;;;;;;5069412;28;20039;-67
2023/03/29 12:05:40;;;;;;;14.15;7.43;;;12.30;99.90;;;;;;5067705;28;20046;-67
2023/03/29 12:08:09;;;;;;;11.55;7.07;;;12.30;99.90;;;;;;5067041;28;20044;-67
2023/03/29 12:11:02;;;;;;;9.15;6.30;;;12.40;99.90;;;;;;5067184;28;20063;-67
2023/03/29 12:13:37;;;;;;;8.85;6.30;;;12.40;99.90;;;;;;5066445;28;20076;-67
2023/03/29 12:16:32;;;;;;;8.65;6.13;;;12.60;99.90;;;;;;5069296;28;20397;-67
2023/03/29 12:19:08;;;;;;;10.00;5.90;;;12.70;99.90;;;;;;5053903;28;20052;-67
2023/03/29 12:21:35;;;;;;;13.30;5.78;;;12.70;99.90;;;;;;5069013;28;20494;-67
2023/03/29 12:24:02;;;;;;;8.05;6.05;;;12.70;99.90;;;;;;5067518;28;20041;-67
2023/03/29 12:26:49;;;;;;;9.38;5.88;;;12.70;99.90;;;;;;5069094;28;20047;-67
2023/03/29 12:29:49;;;;;;;8.10;5.75;;;12.80;99.90;;;;;;5067584;28;20040;-67
2023/03/29 12:32:52;;;;;;;8.02;6.00;;;13.10;99.90;;;;;;5063373;28;20740;-67
2023/03/29 12:35:22;;;;;;;;;;;13.30;99.90;;;;;;5070111;28;20048;-67
2023/03/29 12:38:07;;;;;;;13.25;5.97;;;13.50;99.90;;;;;;5071302;28;19924;-67
2023/03/29 12:40:45;;;;;;;8.02;6.03;;;13.60;99.90;;;;;;5070449;28;20059;-67
2023/03/29 12:43:32;;;;;;;8.30;5.97;;;13.60;99.90;;;;;;5070738;28;20048;-67
2023/03/29 12:46:07;;;;;;;9.10;6.10;;;13.60;99.90;;;;;;5072229;28;20037;-67
2023/03/29 12:48:37;;;;;;;9.13;6.07;;;13.50;99.90;;;;;;5070944;28;20102;-67
2023/03/29 12:51:07;;;;;;;7.55;5.82;;;13.40;99.90;;;;;;5067016;28;20086;-67
2023/03/29 12:53:43;;;;;;;10.93;6.30;;;13.30;99.90;;;;;;5063637;28;20051;-68
2023/03/29 12:56:38;;;;;;;9.20;6.07;;;13.10;99.90;;;;;;5064227;28;20120;-67
2023/03/29 12:59:16;;;;;;;10.90;6.60;;;13.10;99.90;;;;;;5066343;28;20059;-67
2023/03/29 13:01:57;;;;;;;10.73;6.47;;;12.90;99.90;;;;;;5070815;28;20141;-67
2023/03/29 13:04:51;;;;;;;8.75;5.60;;;12.90;99.90;;;;;;5070645;28;20123;-67
2023/03/29 13:07:26;;;;;;;13.00;6.47;;;12.70;99.90;;;;;;5069709;28;20055;-67
2023/03/29 13:10:02;;;;;;;9.40;6.25;;;12.70;99.90;;;;;;5072130;28;20033;-67